Time;durP1;ratioP1;P1;durP2;ratioP2;P2;SDS_P1;SDS_P2;PMS_P1;PMS_P2;Temp;Humidity;BMP_temperature;BMP_pressure;BME280_temperature;BME280_humidity;BME280_pressure;Samples;Min_cycle;Max_cycle;Signal;HPM_P1;HPM_P2
2022/11/16 00:01:00;;;;;;;5.88;3.20;;;10.60;99.90;;;;;;4985180;28;20038;-69
2022/11/16 00:03:25;;;;;;;6.25;3.25;;;10.60;99.90;;;;;;4993416;28;20137;-68
2022/11/16 00:05:56;;;;;;;6.17;3.30;;;10.60;99.90;;;;;;5003832;28;20030;-68
2022/11/16 00:08:21;;;;;;;12.18;3.40;;;10.70;99.90;;;;;;5009383;28;20113;-68
2022/11/16 00:10:47;;;;;;;5.80;3.43;;;10.60;99.90;;;;;;4971631;28;20216;-68
2022/11/16 00:13:13;;;;;;;7.50;3.33;;;10.60;99.90;;;;;;4994682;28;20088;-67
2022/11/16 00:15:38;;;;;;;4.80;3.07;;;10.60;99.90;;;;;;4986381;28;20088;-69
2022/11/16 00:18:04;;;;;;;5.73;3.27;;;10.60;99.90;;;;;;4996790;28;20040;-72
2022/11/16 00:20:29;;;;;;;7.60;4.07;;;10.70;99.90;;;;;;4986428;28;20042;-68
2022/11/16 00:22:55;;;;;;;5.47;3.23;;;10.70;99.90;;;;;;4997345;28;20037;-68
2022/11/16 00:25:21;;;;;;;7.40;3.73;;;10.70;99.90;;;;;;4993001;28;20450;-69
2022/11/16 00:27:46;;;;;;;5.83;3.47;;;10.70;99.90;;;;;;5011420;28;20037;-68
2022/11/16 00:30:12;;;;;;;5.83;3.93;;;10.70;99.90;;;;;;5002664;28;20049;-68
2022/11/16 00:32:38;;;;;;;5.65;3.40;;;10.70;99.90;;;;;;5002663;28;20046;-68
2022/11/16 00:35:04;;;;;;;5.50;3.70;;;10.70;99.90;;;;;;4983067;28;20085;-69
2022/11/16 00:37:32;;;;;;;7.63;3.88;;;10.70;99.90;;;;;;5005831;28;20042;-68
2022/11/16 00:39:58;;;;;;;6.68;3.80;;;10.70;99.90;;;;;;4988972;28;20138;-68
2022/11/16 00:42:23;;;;;;;8.50;3.90;;;10.70;99.90;;;;;;4994520;28;20066;-68
2022/11/16 00:44:49;;;;;;;8.37;4.97;;;10.60;99.90;;;;;;4988435;28;20049;-69
2022/11/16 00:47:14;;;;;;;6.30;4.17;;;10.70;99.90;;;;;;4970637;28;20129;-68
2022/11/16 00:49:40;;;;;;;9.27;4.30;;;10.70;99.90;;;;;;5010238;28;20050;-68
2022/11/16 00:52:06;;;;;;;5.63;3.80;;;10.70;99.90;;;;;;4979693;28;20065;-68
2022/11/16 00:54:31;;;;;;;8.03;4.47;;;10.80;99.90;;;;;;5010695;28;20041;-68
2022/11/16 00:56:57;;;;;;;7.70;4.40;;;10.80;99.90;;;;;;5006797;28;20510;-69
2022/11/16 00:59:22;;;;;;;7.73;4.73;;;10.80;99.90;;;;;;4996900;28;20041;-69
2022/11/16 01:01:48;;;;;;;8.97;4.10;;;10.70;99.90;;;;;;4997952;28;20093;-69
2022/11/16 01:04:14;;;;;;;7.57;4.37;;;10.80;99.90;;;;;;4987793;28;20044;-69
2022/11/16 01:06:39;;;;;;;6.10;3.87;;;10.80;99.90;;;;;;5002043;28;20069;-69
2022/11/16 01:09:05;;;;;;;6.50;4.43;;;10.80;99.90;;;;;;4986087;28;20054;-69
2022/11/16 01:14:14;;;;;;;11.80;5.57;;;10.90;99.90;;;;;;5004483;28;20462;-69
2022/11/16 01:16:40;;;;;;;10.10;5.23;;;10.80;99.90;;;;;;5004022;28;20046;-69
2022/11/16 01:19:07;;;;;;;10.10;4.77;;;10.80;99.90;;;;;;4967013;28;20681;-69
2022/11/16 01:21:33;;;;;;;8.25;4.78;;;10.80;99.90;;;;;;4988266;28;20050;-69
2022/11/16 01:23:59;;;;;;;10.77;6.00;;;10.80;99.90;;;;;;5003920;28;20041;-69
2022/11/16 01:26:24;;;;;;;7.85;4.85;;;10.90;99.90;;;;;;5003680;28;20127;-68
2022/11/16 01:28:50;;;;;;;7.63;5.03;;;10.90;99.90;;;;;;5001600;28;20038;-69
2022/11/16 01:31:16;;;;;;;7.13;4.93;;;10.80;99.90;;;;;;5001750;28;20042;-69
2022/11/16 01:33:42;;;;;;;8.20;5.37;;;10.90;99.90;;;;;;4981361;28;20042;-68
2022/11/16 01:36:13;;;;;;;9.30;5.73;;;10.90;99.90;;;;;;4985590;28;20416;-69
2022/11/16 01:38:41;;;;;;;8.60;5.50;;;10.90;99.90;;;;;;5004873;28;20034;-69
2022/11/16 01:41:06;;;;;;;9.38;5.25;;;10.90;99.90;;;;;;4988218;28;20076;-69
2022/11/16 01:43:53;;;;;;;11.77;5.13;;;10.90;99.90;;;;;;4987188;28;20081;-69
2022/11/16 01:46:19;;;;;;;9.93;5.97;;;10.90;99.90;;;;;;4999741;28;20042;-69
2022/11/16 01:48:46;;;;;;;10.25;6.10;;;10.90;99.90;;;;;;5004803;28;20052;-69
2022/11/16 01:51:12;;;;;;;10.63;5.35;;;10.90;99.90;;;;;;4981909;28;20077;-69
2022/11/16 01:53:37;;;;;;;16.60;6.37;;;10.80;99.90;;;;;;4989434;28;20072;-69
2022/11/16 01:56:04;;;;;;;8.15;5.22;;;10.80;99.90;;;;;;5008683;28;20041;-69
2022/11/16 01:58:30;;;;;;;8.90;5.57;;;10.90;99.90;;;;;;5003452;28;20037;-69
2022/11/16 02:00:55;;;;;;;9.23;5.82;;;10.90;99.90;;;;;;4983619;28;20050;-69
2022/11/16 02:03:21;;;;;;;9.93;5.47;;;10.90;99.90;;;;;;4979809;28;20465;-69
2022/11/16 02:06:14;;;;;;;10.50;6.70;;;10.90;99.90;;;;;;5009797;28;20050;-69
2022/11/16 02:12:07;;;;;;;12.57;5.53;;;10.90;99.90;;;;;;4997551;28;20053;-68
2022/11/16 02:14:51;;;;;;;10.15;5.72;;;10.90;99.90;;;;;;4984147;28;20054;-69
2022/11/16 02:17:51;;;;;;;9.93;6.20;;;10.90;99.90;;;;;;5002421;28;20045;-68
2022/11/16 02:20:45;;;;;;;10.63;5.60;;;10.90;99.90;;;;;;4983172;28;20042;-69
2022/11/16 02:23:39;;;;;;;10.23;6.05;;;10.90;99.90;;;;;;4991800;28;20562;-78
2022/11/16 02:26:37;;;;;;;9.82;5.53;;;10.90;99.90;;;;;;4980945;28;20038;-69
2022/11/16 02:29:31;;;;;;;8.45;5.10;;;10.90;99.90;;;;;;4985593;28;20385;-79
2022/11/16 02:32:08;;;;;;;9.98;6.10;;;10.90;99.90;;;;;;4989478;28;20066;-69
2022/11/16 02:34:45;;;;;;;11.90;6.53;;;10.90;99.90;;;;;;4987199;28;20562;-69
2022/11/16 02:37:13;;;;;;;10.10;6.23;;;10.90;99.90;;;;;;4999419;28;20058;-69
2022/11/16 02:39:42;;;;;;;10.45;6.05;;;10.90;99.90;;;;;;4985161;28;20057;-69
2022/11/16 02:42:13;;;;;;;11.50;6.43;;;10.90;99.90;;;;;;5003083;28;20117;-69
2022/11/16 02:44:43;;;;;;;10.52;6.07;;;11.00;99.90;;;;;;4984200;28;20038;-69
2022/11/16 02:47:22;;;;;;;9.02;5.70;;;10.90;99.90;;;;;;4999721;28;20046;-69
2022/11/16 02:49:54;;;;;;;9.30;5.97;;;11.00;99.90;;;;;;4969287;28;20076;-69
2022/11/16 02:52:21;;;;;;;9.18;5.75;;;11.00;99.90;;;;;;4982692;28;20049;-69
2022/11/16 02:54:47;;;;;;;8.88;5.53;;;11.00;99.90;;;;;;4986698;28;20541;-69
2022/11/16 02:57:22;;;;;;;9.27;6.18;;;11.00;99.90;;;;;;4981932;28;20142;-69
2022/11/16 02:59:51;;;;;;;8.63;5.90;;;11.00;99.90;;;;;;4989856;28;20447;-69
2022/11/16 03:02:26;;;;;;;9.93;5.85;;;11.00;99.90;;;;;;5000346;28;20507;-69
2022/11/16 03:04:59;;;;;;;10.63;6.00;;;11.00;99.90;;;;;;4980141;28;20121;-69
2022/11/16 03:07:30;;;;;;;8.98;5.88;;;11.00;99.90;;;;;;5002369;28;20061;-69
2022/11/16 03:09:57;;;;;;;10.20;6.20;;;11.00;99.90;;;;;;4972575;28;20085;-69
2022/11/16 03:12:28;;;;;;;11.13;5.47;;;11.00;99.90;;;;;;5000081;28;20037;-69
2022/11/16 03:14:58;;;;;;;11.00;6.25;;;11.00;99.90;;;;;;4997233;28;20041;-69
2022/11/16 03:17:36;;;;;;;9.20;5.75;;;11.00;99.90;;;;;;4990607;28;20176;-69
2022/11/16 03:20:14;;;;;;;8.95;6.05;;;11.00;99.90;;;;;;5002820;28;20476;-69
2022/11/16 03:22:47;;;;;;;11.70;6.03;;;11.00;99.90;;;;;;4989702;28;20041;-70
2022/11/16 03:25:16;;;;;;;8.93;5.43;;;11.10;99.90;;;;;;5005469;28;20555;-69
2022/11/16 03:30:41;;;;;;;9.45;5.97;;;11.00;99.90;;;;;;4997891;28;20111;-70
2022/11/16 03:33:26;;;;;;;9.00;5.60;;;11.00;99.90;;;;;;4981370;28;20042;-71
2022/11/16 03:35:59;;;;;;;8.30;5.53;;;11.00;99.90;;;;;;4976438;28;20129;-70
2022/11/16 03:38:26;;;;;;;9.98;5.43;;;11.00;99.90;;;;;;4965547;28;20097;-70
2022/11/16 03:40:56;;;;;;;10.60;5.70;;;11.00;99.90;;;;;;4967063;28;20118;-71
2022/11/16 03:43:22;;;;;;;7.88;5.20;;;11.00;99.90;;;;;;4979154;28;20038;-71
2022/11/16 03:45:49;;;;;;;9.18;5.97;;;11.10;99.90;;;;;;4964467;28;20131;-71
2022/11/16 03:48:14;;;;;;;8.75;5.38;;;11.00;99.90;;;;;;4984545;28;20517;-70
2022/11/16 03:50:41;;;;;;;9.43;5.60;;;11.10;99.90;;;;;;4976764;28;20054;-71
2022/11/16 03:53:07;;;;;;;8.60;5.28;;;11.10;99.90;;;;;;4978894;28;20065;-71
2022/11/16 03:55:32;;;;;;;9.27;5.83;;;11.10;99.90;;;;;;4945429;28;20054;-71
2022/11/16 03:57:58;;;;;;;10.37;5.40;;;11.10;99.90;;;;;;4974422;28;20046;-70
2022/11/16 04:00:23;;;;;;;8.23;4.87;;;11.10;99.90;;;;;;4987758;28;20039;-70
2022/11/16 04:02:49;;;;;;;8.13;5.17;;;11.10;99.90;;;;;;4988308;28;20284;-70
2022/11/16 04:24:38;;;;;;;8.45;4.85;;;11.10;99.90;;;;;;4973538;28;20530;-71
2022/11/16 04:29:52;;;;;;;7.43;4.50;;;11.10;99.90;;;;;;4988056;28;20053;-71
2022/11/16 04:37:49;;;;;;;8.10;5.05;;;11.10;99.90;;;;;;4981973;28;20035;-70
2022/11/16 04:40:19;;;;;;;6.78;4.65;;;11.10;99.90;;;;;;4984428;28;20527;-70
2022/11/16 04:42:53;;;;;;;6.43;4.40;;;11.10;99.90;;;;;;4969333;28;20056;-71
2022/11/16 04:48:04;;;;;;;7.28;4.45;;;11.10;99.90;;;;;;4990280;28;20038;-71
2022/11/16 04:50:30;;;;;;;8.05;5.07;;;11.10;99.90;;;;;;4982500;28;20078;-71
2022/11/16 04:52:55;;;;;;;6.43;3.92;;;11.10;99.90;;;;;;4980652;28;20582;-71
2022/11/16 04:55:21;;;;;;;8.37;4.70;;;11.20;99.90;;;;;;4981766;28;20076;-71
2022/11/16 04:57:47;;;;;;;7.63;4.68;;;11.10;99.90;;;;;;4987135;28;20429;-71
2022/11/16 05:00:13;;;;;;;10.77;5.10;;;11.10;99.90;;;;;;4967698;28;20085;-70
2022/11/16 05:02:39;;;;;;;6.25;4.25;;;11.10;99.90;;;;;;4969564;28;20330;-71
2022/11/16 05:05:05;;;;;;;7.85;4.68;;;11.10;99.90;;;;;;4984190;28;20124;-70
2022/11/16 05:07:30;;;;;;;6.72;4.22;;;11.10;99.90;;;;;;4981342;28;20358;-71
2022/11/16 05:09:56;;;;;;;6.93;5.23;;;11.10;99.90;;;;;;4968091;28;20065;-71
2022/11/16 05:12:24;;;;;;;7.03;4.40;;;11.20;99.90;;;;;;4967498;28;20054;-71
2022/11/16 05:14:50;;;;;;;6.70;4.30;;;11.20;99.90;;;;;;4966987;28;20034;-71
2022/11/16 05:17:17;;;;;;;8.68;3.97;;;11.10;99.90;;;;;;4980404;28;20034;-71
2022/11/16 05:22:27;;;;;;;8.27;5.22;;;11.20;99.90;;;;;;4973151;28;20042;-70
2022/11/16 05:24:56;;;;;;;7.27;4.23;;;11.10;99.90;;;;;;4967028;28;20034;-71
2022/11/16 05:27:22;;;;;;;7.85;4.60;;;11.10;99.90;;;;;;4968282;28;20081;-71
2022/11/16 05:29:51;;;;;;;;;;;11.20;99.90;;;;;;4986025;28;20069;-70
2022/11/16 05:32:18;;;;;;;6.32;4.18;;;11.20;99.90;;;;;;4991990;28;19969;-71
2022/11/16 05:34:45;;;;;;;8.65;4.78;;;11.10;99.90;;;;;;4980503;28;20065;-71
2022/11/16 05:37:11;;;;;;;;;;;11.20;99.90;;;;;;4984374;28;20035;-71
2022/11/16 05:39:37;;;;;;;7.03;4.50;;;11.20;99.90;;;;;;4962086;28;19964;-71
2022/11/16 05:42:04;;;;;;;7.15;4.22;;;11.20;99.90;;;;;;4979861;28;20141;-72
2022/11/16 05:44:29;;;;;;;5.82;3.95;;;11.20;99.90;;;;;;4963088;28;20547;-71
2022/11/16 05:46:55;;;;;;;6.97;3.73;;;11.10;99.90;;;;;;4961381;28;20150;-71
2022/11/16 05:49:21;;;;;;;6.43;4.03;;;11.20;99.90;;;;;;4966303;28;20520;-72
2022/11/16 05:51:47;;;;;;;5.45;3.60;;;11.20;99.90;;;;;;4981478;28;20078;-72
2022/11/16 05:54:18;;;;;;;6.47;4.28;;;11.20;99.90;;;;;;4988506;28;20069;-71
2022/11/16 05:56:44;;;;;;;6.65;4.30;;;11.20;99.90;;;;;;4956395;28;20062;-71
2022/11/16 05:59:18;;;;;;;4.68;3.53;;;11.20;99.90;;;;;;4984274;28;20466;-71
2022/11/16 06:01:44;;;;;;;6.15;4.07;;;11.20;99.90;;;;;;4985879;28;20077;-71
2022/11/16 06:04:11;;;;;;;6.93;4.65;;;11.20;99.90;;;;;;4963495;28;20057;-71
2022/11/16 06:06:36;;;;;;;;;;;11.20;99.90;;;;;;4983406;28;20148;-72
2022/11/16 06:09:02;;;;;;;6.32;4.07;;;11.20;99.90;;;;;;4984607;28;19918;-72
2022/11/16 06:11:28;;;;;;;8.77;4.40;;;11.20;99.90;;;;;;4968791;28;20240;-73
2022/11/16 06:13:54;;;;;;;5.88;3.67;;;11.20;99.90;;;;;;4981317;28;20464;-72
2022/11/16 06:16:19;;;;;;;4.87;3.53;;;11.20;99.90;;;;;;4979613;28;20499;-72
2022/11/16 06:18:46;;;;;;;5.90;3.10;;;11.20;99.90;;;;;;4982024;28;20038;-71
2022/11/16 06:21:14;;;;;;;4.43;2.75;;;11.20;99.90;;;;;;4979524;28;20038;-71
2022/11/16 06:23:39;;;;;;;4.82;2.90;;;11.20;99.90;;;;;;4981731;28;20485;-71
2022/11/16 06:26:05;;;;;;;4.43;3.03;;;11.10;99.90;;;;;;4988086;28;20039;-72
2022/11/16 06:28:32;;;;;;;6.00;2.80;;;11.10;99.90;;;;;;4967956;28;20384;-73
2022/11/16 06:30:57;;;;;;;5.43;2.38;;;11.10;99.90;;;;;;4964477;28;20149;-73
2022/11/16 06:33:23;;;;;;;4.83;3.20;;;11.00;99.90;;;;;;4966335;28;20549;-77
2022/11/16 06:35:49;;;;;;;5.18;2.95;;;11.00;99.90;;;;;;4984827;28;20520;-74
2022/11/16 06:38:20;;;;;;;4.17;2.60;;;11.00;99.90;;;;;;4969414;28;20427;-71
2022/11/16 06:40:50;;;;;;;5.07;3.17;;;11.00;99.90;;;;;;4962769;28;20292;-72
2022/11/16 06:43:16;;;;;;;4.65;2.67;;;11.00;99.90;;;;;;4957562;28;20105;-71
2022/11/16 06:45:41;;;;;;;6.07;3.20;;;11.00;99.90;;;;;;4973739;28;20043;-71
2022/11/16 06:48:07;;;;;;;7.77;3.67;;;11.00;99.90;;;;;;4982591;28;20041;-71
2022/11/16 06:50:33;;;;;;;5.93;3.67;;;11.00;99.90;;;;;;4978901;28;20074;-72
2022/11/16 06:53:02;;;;;;;6.38;3.42;;;11.10;99.90;;;;;;4974500;28;20034;-71
2022/11/16 06:55:28;;;;;;;6.03;3.75;;;11.00;99.90;;;;;;4982327;28;20127;-71
2022/11/16 06:57:54;;;;;;;7.50;4.07;;;11.00;99.90;;;;;;4986240;28;20062;-72
2022/11/16 07:00:19;;;;;;;6.05;4.15;;;11.00;99.90;;;;;;4961634;28;20141;-72
2022/11/16 07:02:45;;;;;;;6.13;3.90;;;11.00;99.90;;;;;;4967361;28;20042;-72
2022/11/16 07:05:10;;;;;;;8.02;4.13;;;11.00;99.90;;;;;;4986070;28;20332;-71
2022/11/16 07:07:36;;;;;;;10.70;3.73;;;11.00;99.90;;;;;;4955551;28;20051;-71
2022/11/16 07:10:03;;;;;;;5.50;3.63;;;11.00;99.90;;;;;;4985711;28;20518;-71
2022/11/16 07:12:28;;;;;;;;;;;11.00;99.90;;;;;;4970926;28;20047;-71
2022/11/16 07:14:54;;;;;;;6.30;3.60;;;11.00;99.90;;;;;;4974070;28;19924;-71
2022/11/16 07:17:19;;;;;;;6.17;3.97;;;11.00;99.90;;;;;;4979272;28;20495;-71
2022/11/16 07:19:45;;;;;;;5.73;3.80;;;11.00;99.90;;;;;;4957517;28;20293;-72
2022/11/16 07:22:11;;;;;;;6.70;4.20;;;11.00;99.90;;;;;;4980957;28;20046;-71
2022/11/16 07:24:36;;;;;;;6.67;4.50;;;11.00;99.90;;;;;;4960276;28;20684;-72
2022/11/16 07:27:02;;;;;;;5.87;3.90;;;10.90;99.90;;;;;;4984237;28;20476;-71
2022/11/16 07:29:28;;;;;;;5.87;3.63;;;11.00;99.90;;;;;;4985267;28;20038;-72
2022/11/16 07:31:54;;;;;;;6.63;4.03;;;10.90;99.90;;;;;;4951409;28;20042;-71
2022/11/16 07:34:19;;;;;;;7.43;4.83;;;10.90;99.90;;;;;;4984640;28;20050;-71
2022/11/16 07:36:45;;;;;;;7.43;4.43;;;10.90;99.90;;;;;;4987303;28;20354;-71
2022/11/16 07:39:11;;;;;;;7.80;4.23;;;10.90;99.90;;;;;;4982567;28;20038;-71
2022/11/16 07:41:43;;;;;;;7.80;4.80;;;10.90;99.90;;;;;;4981543;28;20035;-71
2022/11/16 07:44:09;;;;;;;6.75;4.78;;;10.90;99.90;;;;;;4983006;28;20038;-71
2022/11/16 07:46:35;;;;;;;7.47;4.63;;;10.90;99.90;;;;;;4968525;28;20090;-71
2022/11/16 07:49:01;;;;;;;8.18;5.38;;;10.90;99.90;;;;;;4965562;28;20062;-71
2022/11/16 07:51:26;;;;;;;11.32;5.63;;;10.90;99.90;;;;;;4982346;28;20047;-72
2022/11/16 07:53:56;;;;;;;13.40;6.23;;;10.90;99.90;;;;;;4985062;28;20034;-71
2022/11/16 07:56:22;;;;;;;14.77;6.45;;;10.90;99.90;;;;;;4961975;28;20392;-71
2022/11/16 07:58:48;;;;;;;11.23;6.13;;;10.90;99.90;;;;;;4968160;28;20480;-71
2022/11/16 08:01:15;;;;;;;10.40;6.00;;;10.90;99.90;;;;;;4986200;28;20061;-72
2022/11/16 08:03:42;;;;;;;11.70;5.82;;;10.90;99.90;;;;;;4965922;28;20094;-71
2022/11/16 08:06:15;;;;;;;8.68;5.30;;;10.90;99.90;;;;;;4970385;28;20393;-71
2022/11/16 08:08:41;;;;;;;8.45;5.18;;;10.90;99.90;;;;;;4976401;28;20058;-71
2022/11/16 08:11:08;;;;;;;9.18;5.13;;;10.90;99.90;;;;;;4977133;28;20108;-72
2022/11/16 08:13:36;;;;;;;8.65;4.57;;;10.90;99.90;;;;;;4992105;28;20038;-71
2022/11/16 08:16:14;;;;;;;9.07;5.43;;;10.90;99.90;;;;;;4971395;28;20050;-71
2022/11/16 08:18:40;;;;;;;7.95;4.82;;;10.90;99.90;;;;;;4972902;28;20489;-71
2022/11/16 08:21:07;;;;;;;;;;;10.90;99.90;;;;;;4970627;28;20043;-71
2022/11/16 08:23:32;;;;;;;8.25;5.00;;;10.90;99.90;;;;;;4965150;28;20443;-71
2022/11/16 08:25:59;;;;;;;7.82;5.10;;;10.90;99.90;;;;;;4967929;28;20046;-71
2022/11/16 08:28:29;;;;;;;7.53;4.90;;;10.90;99.90;;;;;;4967568;28;20054;-71
2022/11/16 08:30:55;;;;;;;8.25;4.78;;;10.90;99.90;;;;;;4984315;28;20456;-71
2022/11/16 08:33:22;;;;;;;9.32;5.55;;;10.90;99.90;;;;;;4981172;28;20039;-71
2022/11/16 08:35:48;;;;;;;8.32;4.88;;;10.90;99.90;;;;;;4964039;28;20528;-71
2022/11/16 08:38:14;;;;;;;8.55;5.30;;;10.90;99.90;;;;;;4968473;28;20075;-71
2022/11/16 08:40:40;;;;;;;8.18;4.20;;;10.90;99.90;;;;;;4972763;28;20405;-71
2022/11/16 08:43:06;;;;;;;9.10;5.30;;;10.90;99.90;;;;;;4983800;28;20042;-71
2022/11/16 08:45:32;;;;;;;8.48;4.47;;;10.90;99.90;;;;;;4968504;28;20416;-71
2022/11/16 08:47:59;;;;;;;13.30;4.35;;;10.90;99.90;;;;;;4967040;28;20047;-71
2022/11/16 08:50:25;;;;;;;7.55;4.47;;;10.90;99.90;;;;;;4979300;28;20050;-71
2022/11/16 08:52:50;;;;;;;7.22;4.40;;;11.00;99.90;;;;;;4991211;28;20372;-71
2022/11/16 08:55:17;;;;;;;10.07;4.20;;;10.90;99.90;;;;;;4980484;28;20105;-71
2022/11/16 08:57:43;;;;;;;;;;;11.00;99.90;;;;;;4984820;28;20145;-72
2022/11/16 09:00:10;;;;;;;9.40;4.45;;;11.00;99.90;;;;;;4958985;28;19921;-71
2022/11/16 09:02:36;;;;;;;6.35;4.38;;;11.00;99.90;;;;;;4984505;28;20121;-71
2022/11/16 09:05:02;;;;;;;8.73;4.57;;;11.00;99.90;;;;;;4983407;28;20454;-71
2022/11/16 09:07:28;;;;;;;;;;;11.00;99.90;;;;;;4982908;28;20113;-71
2022/11/16 09:09:53;;;;;;;9.98;4.03;;;11.00;99.90;;;;;;4980567;28;19922;-71
2022/11/16 09:12:19;;;;;;;8.27;4.20;;;11.10;99.90;;;;;;4992590;28;20041;-71
2022/11/16 09:14:49;;;;;;;8.80;4.80;;;11.10;99.90;;;;;;4966816;28;20046;-71
2022/11/16 09:17:15;;;;;;;7.72;4.30;;;11.10;99.90;;;;;;4965663;28;20513;-71
2022/11/16 09:19:41;;;;;;;9.23;4.35;;;11.20;99.90;;;;;;4976496;28;20070;-73
2022/11/16 09:22:07;;;;;;;9.40;5.03;;;11.20;99.90;;;;;;4983885;28;20076;-71
2022/11/16 09:24:33;;;;;;;8.02;4.38;;;11.20;99.90;;;;;;4975748;28;20046;-71
2022/11/16 09:27:00;;;;;;;8.00;4.57;;;11.20;99.90;;;;;;4990890;28;20058;-71
2022/11/16 09:29:29;;;;;;;8.90;4.78;;;11.20;99.90;;;;;;5013912;22;20045;-72
2022/11/16 09:31:55;;;;;;;9.07;5.25;;;11.30;99.90;;;;;;5036565;28;20132;-72
2022/11/16 09:34:21;;;;;;;11.25;4.88;;;11.30;99.90;;;;;;5035322;28;20579;-73
2022/11/16 09:36:46;;;;;;;10.67;5.03;;;11.30;99.90;;;;;;5024891;28;20037;-74
2022/11/16 09:39:12;;;;;;;10.80;5.83;;;11.30;99.90;;;;;;5019611;28;20310;-73
2022/11/16 09:41:41;;;;;;;13.07;6.30;;;11.50;99.90;;;;;;5019055;28;20364;-73
2022/11/16 09:44:44;;;;;;;11.27;6.00;;;11.50;99.90;;;;;;5023772;28;20041;-73
2022/11/16 09:47:42;;;;;;;10.32;6.10;;;11.50;99.90;;;;;;5023908;28;20050;-73
2022/11/16 09:50:35;;;;;;;13.50;6.72;;;11.50;99.90;;;;;;5008280;28;20422;-74
2022/11/16 09:53:17;;;;;;;11.13;5.82;;;11.50;99.90;;;;;;5022051;28;20331;-73
2022/11/16 09:55:52;;;;;;;10.90;5.97;;;11.50;99.90;;;;;;5019831;28;20045;-73
2022/11/16 09:58:48;;;;;;;9.52;5.78;;;11.60;99.90;;;;;;5018711;28;20050;-73
2022/11/16 10:01:28;;;;;;;13.98;6.43;;;11.60;99.90;;;;;;5006934;28;20038;-73
2022/11/16 10:04:10;;;;;;;12.70;5.75;;;11.60;99.90;;;;;;5018329;28;20487;-78
2022/11/16 10:06:57;;;;;;;10.52;5.53;;;11.70;99.90;;;;;;5021387;28;20064;-73
2022/11/16 10:09:24;;;;;;;10.27;5.85;;;11.70;99.90;;;;;;5018477;28;20076;-73
2022/11/16 10:12:08;;;;;;;13.52;6.03;;;11.80;99.90;;;;;;5018272;28;20052;-73
2022/11/16 10:15:00;;;;;;;12.35;6.13;;;11.80;99.90;;;;;;5019505;28;20400;-73
2022/11/16 10:18:10;;;;;;;9.98;5.93;;;11.80;99.90;;;;;;5019673;28;20055;-73
2022/11/16 10:20:57;;;;;;;11.50;7.03;;;11.80;99.90;;;;;;5014682;28;20451;-72
2022/11/16 10:23:49;;;;;;;14.63;6.40;;;11.80;99.90;;;;;;5017605;28;20065;-72
2022/11/16 10:26:45;;;;;;;12.77;5.20;;;11.80;99.90;;;;;;5016390;28;20263;-71
2022/11/16 10:29:45;;;;;;;10.15;6.68;;;11.90;99.90;;;;;;5020679;28;20384;-72
2022/11/16 10:32:30;;;;;;;10.13;5.32;;;11.80;99.90;;;;;;5009401;28;20507;-72
2022/11/16 10:35:04;;;;;;;10.98;4.75;;;11.90;99.90;;;;;;5019748;28;20056;-72
2022/11/16 10:37:35;;;;;;;8.10;5.20;;;11.90;99.90;;;;;;5012749;28;20406;-71
2022/11/16 10:40:16;;;;;;;9.77;5.30;;;12.00;99.90;;;;;;5001857;28;20045;-71
2022/11/16 10:42:43;;;;;;;10.20;5.68;;;12.00;99.90;;;;;;5016398;28;20061;-71
2022/11/16 10:45:09;;;;;;;10.98;5.30;;;12.00;99.90;;;;;;5020124;28;20134;-72
2022/11/16 10:47:45;;;;;;;9.40;5.28;;;12.10;99.90;;;;;;5019681;28;20136;-72
2022/11/16 10:50:37;;;;;;;9.18;5.03;;;12.20;99.90;;;;;;5016991;28;20085;-71
2022/11/16 10:53:03;;;;;;;12.82;5.70;;;12.20;99.90;;;;;;5016506;28;20041;-71
2022/11/16 10:55:29;;;;;;;9.77;5.78;;;12.20;99.90;;;;;;5023327;28;20537;-71
2022/11/16 10:58:01;;;;;;;11.50;4.93;;;12.30;99.90;;;;;;5023574;28;20051;-71
2022/11/16 11:00:37;;;;;;;14.18;5.38;;;12.30;99.90;;;;;;5000647;28;20038;-71
2022/11/16 11:03:03;;;;;;;11.30;5.13;;;12.30;99.90;;;;;;5015895;28;20072;-71
2022/11/16 11:05:29;;;;;;;11.07;5.28;;;12.40;99.90;;;;;;5013980;28;20693;-71
2022/11/16 11:08:11;;;;;;;;;;;12.40;99.90;;;;;;5017441;28;20041;-70
2022/11/16 11:10:39;;;;;;;11.85;4.63;;;12.40;99.90;;;;;;5025956;28;19967;-71
2022/11/16 11:13:11;;;;;;;10.07;5.35;;;12.50;99.90;;;;;;5018225;28;20045;-70
2022/11/16 11:15:42;;;;;;;9.88;4.10;;;12.50;99.90;;;;;;5003001;28;20060;-73
2022/11/16 11:18:21;;;;;;;6.57;3.90;;;12.50;99.90;;;;;;5005619;28;20133;-73
2022/11/16 11:21:04;;;;;;;6.57;4.53;;;12.50;99.90;;;;;;5015119;28;20389;-71
2022/11/16 11:23:42;;;;;;;8.23;3.90;;;12.50;99.90;;;;;;5021488;28;20128;-71
2022/11/16 11:26:27;;;;;;;8.52;4.10;;;12.50;99.90;;;;;;5024253;28;20095;-70
2022/11/16 11:28:53;;;;;;;6.57;3.22;;;12.70;99.90;;;;;;5022022;28;20067;-71
2022/11/16 11:31:31;;;;;;;9.63;2.95;;;12.70;99.90;;;;;;5023120;28;20598;-71
2022/11/16 11:34:08;;;;;;;6.18;2.60;;;12.70;99.90;;;;;;5013957;28;20284;-72
2022/11/16 11:37:00;;;;;;;6.22;2.85;;;12.70;99.90;;;;;;5040009;28;20095;-72
2022/11/16 11:39:30;;;;;;;4.72;2.92;;;12.70;99.90;;;;;;5013289;28;20120;-70
2022/11/16 11:42:14;;;;;;;8.52;2.72;;;12.70;99.90;;;;;;5012497;28;20053;-71
2022/11/16 11:44:48;;;;;;;4.68;2.70;;;12.70;99.90;;;;;;4996789;28;20061;-71
2022/11/16 11:47:50;;;;;;;5.53;2.97;;;12.70;99.90;;;;;;5015961;28;20045;-71
2022/11/16 11:50:42;;;;;;;5.20;2.70;;;12.80;99.90;;;;;;4995986;28;20408;-71
2022/11/16 11:53:17;;;;;;;5.95;3.38;;;12.90;99.90;;;;;;5011326;28;20048;-72
2022/11/16 11:55:43;;;;;;;10.02;3.70;;;12.90;99.90;;;;;;5021762;28;20406;-72
2022/11/16 11:58:15;;;;;;;6.23;2.60;;;13.10;99.90;;;;;;5015848;28;20034;-72
2022/11/16 12:01:18;;;;;;;10.45;2.65;;;13.10;99.90;;;;;;5017665;28;20301;-72
2022/11/16 12:04:21;;;;;;;7.40;3.28;;;13.10;99.90;;;;;;5019312;28;20060;-71
2022/11/16 12:07:15;;;;;;;5.43;2.30;;;13.20;99.90;;;;;;5012240;28;20138;-71
2022/11/16 12:10:11;;;;;;;8.75;2.17;;;13.20;99.90;;;;;;5012835;28;20037;-71
2022/11/16 12:12:44;;;;;;;7.45;2.65;;;13.10;99.90;;;;;;5016357;28;20034;-71
2022/11/16 12:15:24;;;;;;;5.50;2.20;;;13.00;99.90;;;;;;5016737;28;20447;-71
2022/11/16 12:18:06;;;;;;;4.70;2.42;;;13.00;99.90;;;;;;5016460;28;20064;-71
2022/11/16 12:20:42;;;;;;;6.93;2.38;;;12.90;99.90;;;;;;5008283;28;20045;-71
2022/11/16 12:23:34;;;;;;;6.07;2.03;;;13.00;99.90;;;;;;5009632;28;20033;-71
2022/11/16 12:26:23;;;;;;;3.78;1.77;;;13.10;99.90;;;;;;5005574;28;20523;-71
2022/11/16 12:28:48;;;;;;;7.45;2.25;;;13.20;99.90;;;;;;5024118;28;20136;-71
2022/11/16 12:31:28;;;;;;;4.93;2.60;;;13.30;99.90;;;;;;5026087;28;20556;-71
2022/11/16 12:34:17;;;;;;;3.95;1.58;;;13.40;99.90;;;;;;5025939;28;20329;-71
2022/11/16 12:37:05;;;;;;;5.78;2.25;;;13.50;99.90;;;;;;5015738;28;20054;-71
2022/11/16 12:39:50;;;;;;;6.22;1.73;;;13.50;99.90;;;;;;5024739;28;20080;-71
2022/11/16 12:42:40;;;;;;;9.75;3.17;;;13.50;99.90;;;;;;5015628;28;20380;-71
2022/11/16 12:45:15;;;;;;;5.18;1.80;;;13.40;99.90;;;;;;5008907;28;20033;-71
2022/11/16 12:47:53;;;;;;;6.50;1.50;;;13.40;99.90;;;;;;5019466;28;20120;-72
2022/11/16 12:50:43;;;;;;;5.72;1.75;;;13.40;99.90;;;;;;5002393;28;20037;-70
2022/11/16 12:53:24;;;;;;;5.43;1.42;;;13.30;99.90;;;;;;5027180;28;20071;-70
2022/11/16 12:56:24;;;;;;;5.72;1.35;;;13.30;99.90;;;;;;5023928;28;20037;-72
2022/11/16 12:58:55;;;;;;;7.07;1.60;;;13.30;99.90;;;;;;5021959;28;20098;-73
2022/11/16 13:01:39;;;;;;;3.20;1.40;;;13.40;99.90;;;;;;5017024;28;20483;-72
2022/11/16 13:04:22;;;;;;;7.07;2.42;;;13.40;99.90;;;;;;5021244;28;20041;-72
2022/11/16 13:07:14;;;;;;;5.85;1.65;;;13.40;99.90;;;;;;5017867;28;20073;-72
2022/11/16 13:09:44;;;;;;;7.80;1.88;;;13.30;99.90;;;;;;5020106;28;20041;-72
2022/11/16 13:12:14;;;;;;;5.13;1.83;;;13.20;99.90;;;;;;5020657;28;21235;-72
2022/11/16 13:14:43;;;;;;;7.50;2.10;;;13.00;99.90;;;;;;5015854;28;20548;-72
2022/11/16 13:17:24;;;;;;;8.10;1.98;;;13.00;99.90;;;;;;5011297;28;20049;-72
2022/11/16 13:20:03;;;;;;;4.30;1.42;;;12.90;99.90;;;;;;5006517;28;20061;-73
2022/11/16 13:22:35;;;;;;;9.20;1.63;;;12.90;99.90;;;;;;5024169;28;20041;-73
2022/11/16 13:25:01;;;;;;;9.30;2.10;;;12.90;99.90;;;;;;5014924;28;20515;-74
2022/11/16 13:27:42;;;;;;;6.70;1.92;;;12.90;99.90;;;;;;5018840;28;20069;-73
2022/11/16 13:30:20;;;;;;;3.90;1.60;;;12.80;99.90;;;;;;5014984;28;20049;-73
2022/11/16 13:33:24;;;;;;;5.95;1.77;;;12.70;99.90;;;;;;5014806;28;20126;-73
2022/11/16 13:35:50;;;;;;;7.00;1.80;;;12.70;99.90;;;;;;5022296;28;20400;-73
2022/11/16 13:38:50;;;;;;;5.53;1.67;;;12.60;99.90;;;;;;5001585;28;20053;-73
2022/11/16 13:41:49;;;;;;;4.57;1.73;;;12.60;99.90;;;;;;4997722;28;20636;-74
2022/11/16 13:44:19;;;;;;;4.13;1.58;;;12.60;99.90;;;;;;4999085;28;20123;-73
2022/11/16 13:46:49;;;;;;;4.15;1.40;;;12.60;99.90;;;;;;5003720;28;20043;-73
2022/11/16 13:49:48;;;;;;;8.45;1.50;;;12.60;99.90;;;;;;5017231;28;20394;-74
2022/11/16 13:52:14;;;;;;;4.88;2.10;;;12.60;99.90;;;;;;5011844;28;20438;-73